Flight Track Log - Related Links

Times and Time Zones

All times are in EDT time to prevent confusion due to time zone crossing. See the N213KP flight status page for this flight to view local times or setup timezone preferences in your user account.

Time Position Orientation Groundspeed Altitude Reporting Facility
EDT Latitude Longitude Course Direction KTS MPH feet Rate Location/Type
Mon 09:08:29 AM 39.4897 -120.0278 27° Northeast 235 270 11,700  Level Salt Lake Center
Mon 09:09:30 AM 39.5453 -119.9911 27° Northeast 229 264 13,000 1,475 Climbing Salt Lake Center
Mon 09:10:31 AM 39.5997 -119.9425 35° Northeast 234 269 14,700 1,328 Climbing Salt Lake Center
Mon 09:11:32 AM 39.6572 -119.8936 33° Northeast 244 281 15,700 1,279 Climbing Oakland Center
Mon 09:12:33 AM 39.7156 -119.8419 34° Northeast 252 290 17,300 1,388 Climbing Oakland Center
Mon 09:13:33 AM 39.7769 -119.7900 33° Northeast 260 299 18,500 1,150 Climbing Oakland Center
Mon 09:14:33 AM 39.8378 -119.7364 34° Northeast 263 303 19,600 942 Climbing Oakland Center
Mon 09:15:34 AM 39.8969 -119.6836 34° Northeast 258 297 20,400 1,041 Climbing Oakland Center
Mon 09:16:34 AM 39.9603 -119.6278 34° Northeast 269 310 21,700 1,289 Climbing Oakland Center
Mon 09:17:35 AM 40.0222 -119.5725 34° Northeast 270 311 23,000 843 Climbing Oakland Center
Mon 09:18:35 AM 40.0878 -119.5164 33° Northeast 276 318 23,400 700 Climbing Oakland Center
Mon 09:19:35 AM 40.1472 -119.4633 34° Northeast 263 303 24,400 992 Climbing Oakland Center
Mon 09:20:36 AM 40.2092 -119.4075 35° Northeast 268 308 25,400 992 Climbing Oakland Center
Mon 09:21:36 AM 40.2661 -119.3572 34° Northeast 251 289 26,400 992 Climbing Oakland Center
Mon 09:22:37 AM 40.3239 -119.3061 34° Northeast 248 285 27,400 793 Climbing Oakland Center
Mon 09:23:37 AM 40.3825 -119.2528 35° Northeast 254 292 28,000 298 Climbing Oakland Center
Mon 09:24:38 AM 40.4472 -119.1956 34° Northeast 269 310 28,000  Level Oakland Center
Mon 09:25:39 AM 40.5161 -119.1328 35° Northeast 294 338 28,000  Level Oakland Center
Mon 09:26:39 AM 40.5872 -119.0694 34° Northeast 306 352 28,000  Level Oakland Center
Mon 09:27:40 AM 40.6542 -119.0094 34° Northeast 295 339 28,000  Level Oakland Center
Mon 09:28:40 AM 40.7189 -118.9500 35° Northeast 286 329 28,000  Level Oakland Center
Mon 09:29:41 AM 40.7878 -118.8864 35° Northeast 298 343 28,000  Level Oakland Center
Mon 09:30:42 AM 40.8633 -118.8206 33° Northeast 289 333 28,000  Level Oakland Center
Mon 09:31:42 AM 40.9308 -118.7575 35° Northeast 304 350 28,000  Level Oakland Center
Mon 09:32:43 AM 41.0019 -118.6917 35° Northeast 323 372 28,000  Level Oakland Center
Mon 09:33:52 AM 41.0772 -118.6250 34° Northeast 300 345 28,000  Level Salt Lake Center
Mon 09:34:53 AM 41.1497 -118.5567 35° Northeast 287 330 28,000  Level Salt Lake Center
Mon 09:35:54 AM 41.2169 -118.4950 35° Northeast 299 344 28,000  Level Salt Lake Center
Mon 09:36:55 AM 41.2831 -118.4353 34° Northeast 300 345 28,000  Level Salt Lake Center
Mon 09:37:56 AM 41.3550 -118.3675 35° Northeast 289 333 28,000  Level Salt Lake Center
Mon 09:38:57 AM 41.4192 -118.3086 35° Northeast 289 333 28,000  Level Salt Lake Center
Mon 09:39:58 AM 41.4889 -118.2433 35° Northeast 309 356 28,000  Level Salt Lake Center
Mon 09:40:59 AM 41.5672 -118.1692 35° Northeast 308 354 28,000  Level Salt Lake Center
Mon 09:42:00 AM 41.6319 -118.1081 35° Northeast 299 344 28,000  Level Salt Lake Center
Mon 09:43:01 AM 41.7069 -118.0375 35° Northeast 294 338 28,000  Level Salt Lake Center
Mon 09:44:02 AM 41.7686 -117.9811 34° Northeast 284 327 28,000  Level Salt Lake Center
Mon 09:45:03 AM 41.8350 -117.9194 35° Northeast 294 338 28,000  Level Salt Lake Center
Mon 09:46:04 AM 41.9211 -117.8372 35° Northeast 328 377 28,000  Level Salt Lake Center
Mon 09:47:05 AM 41.9925 -117.7675 36° Northeast 330 380 28,000  Level Salt Lake Center
Mon 09:48:07 AM 42.0550 -117.7075 35° Northeast 301 346 28,000  Level Salt Lake Center
Mon 09:49:08 AM 42.1358 -117.6314 35° Northeast 308 354 28,000  Level Salt Lake Center
Mon 09:50:09 AM 42.2069 -117.5606 36° Northeast 325 374 28,000  Level Salt Lake Center
Mon 09:51:10 AM 42.2861 -117.4850 35° Northeast 317 365 28,000  Level Salt Lake Center
Mon 09:52:11 AM 42.3606 -117.4125 36° Northeast 330 380 28,000  Level Salt Lake Center
Mon 09:53:13 AM 42.4350 -117.3403 36° Northeast 329 379 28,000 -390 Level Salt Lake Center
Mon 09:54:14 AM 42.5094 -117.2683 35° Northeast 329 379 27,200 -1,131 Descending Salt Lake Center
Mon 09:55:15 AM 42.5833 -117.1964 36° Northeast 328 377 25,700 -1,475 Descending Salt Lake Center
Mon 09:56:16 AM 42.6586 -117.1233 36° Northeast 333 383 24,200 -1,512 Descending Salt Lake Center
Mon 09:57:18 AM 42.7358 -117.0472 36° Northeast 342 394 22,600 -1,610 Descending Salt Lake Center
Mon 09:58:19 AM 42.8158 -116.9694 35° Northeast 352 405 20,900 -1,698 Descending Salt Lake Center
Mon 09:59:04 AM 42.8947 -116.9350 18° North 302 348 19,600 -1,377 Descending Salt Lake Center
Mon 09:59:20 AM 42.8883 -116.8981 103° East 323 372 19,500 -1,377 Descending Salt Lake Center
Mon 10:00:05 AM 42.9550 -116.8722 16° North 283 326 18,200 -2,032 Descending Salt Lake Center
Mon 10:00:22 AM 42.9644 -116.8236 75° East 282 325 17,400 -1,800 Descending Salt Lake Center
Mon 10:01:05 AM 43.0186 -116.8050 14° North 272 313 16,400 -1,475 Descending Salt Lake Center
Mon 10:01:23 AM 43.0253 -116.7633 78° East 271 312 15,900 -1,522 Descending Salt Lake Center
Mon 10:02:12 AM 43.0842 -116.7367 18° North 257 296 14,700 -1,452 Descending Salt Lake Center
Mon 10:02:25 AM 43.0808 -116.7081 99° East 258 297 14,400 -1,500 Descending Salt Lake Center
Mon 10:03:12 AM 43.1356 -116.6831 18° North 245 282 13,200 -1,475 Descending Salt Lake Center
Mon 10:03:26 AM 43.1394 -116.6500 81° East 249 287 12,900 -1,520 Descending Salt Lake Center
Mon 10:04:27 AM 43.2000 -116.5875 37° Northeast 260 299 11,300 -1,579 Descending Salt Lake Center
Mon 10:05:20 AM 43.2594 -116.5550 22° Northeast 249 287 9,900 -1,452 Descending Salt Lake Center
Mon 10:05:29 AM 43.2561 -116.5358 103° East 253 291 9,800 -1,444 Descending Salt Lake Center
Mon 10:06:14 AM 43.3050 -116.4944 32° Northeast 262 302 8,600 -1,574 Descending Salt Lake Center
Mon 10:06:30 AM 43.3128 -116.4664 69° East 261 300 8,200 -1,377 Descending Salt Lake Center
Mon 10:07:15 AM 43.3567 -116.4222 36° Northeast 272 313 7,200 -1,161 Descending Salt Lake Center
Mon 10:07:32 AM 43.3661 -116.3858 70° East 272 313 7,000 -197 Descending Salt Lake Center
Mon 10:08:16 AM 43.4011 -116.3381 45° Northeast 236 272 7,000  Level Salt Lake Center
Mon 10:08:33 AM 43.4100 -116.3092 67° East 246 283 7,000 -800 Level Salt Lake Center
Mon 10:09:16 AM 43.4244 -116.2567 69° East 253 291 6,200 -1,082 Descending Salt Lake Center
Mon 10:09:34 AM 43.4250 -116.2233 89° East 253 291 5,900 -590 Descending Salt Lake Center
Mon 10:10:17 AM 43.4281 -116.1656 86° East 225 259 5,600 -290 Descending Salt Lake Center
Mon 10:10:36 AM 43.4319 -116.1339 80° East 227 261 5,600  Level Salt Lake Center
Mon 10:11:17 AM 43.4475 -116.0975 60° Northeast 175 201 5,600 -197 Level Salt Lake Center
Mon 10:11:37 AM 43.4653 -116.0844 28° Northeast 183 211 5,400 -716 Descending Salt Lake Center
Mon 10:12:24 AM 43.4961 -116.0800 North 169 194 4,800 -774 Descending Salt Lake Center
Mon 10:12:39 AM 43.5086 -116.0814 355° North 171 197 4,600 -689 Descending Salt Lake Center
Mon 10:13:25 AM 43.5250 -116.1217 299° West 143 165 4,100 -590 Descending Salt Lake Center
Mon 10:13:40 AM 43.5311 -116.1328 307° West 152 175 4,000 -625 Descending Salt Lake Center
Mon 10:14:13 AM 43.5414 -116.1656 293° West 164 189 3,600 -484 Descending Salt Lake Center
Mon 10:14:42 AM 43.5508 -116.1886 299° West 158 182 3,500 -207 Descending Salt Lake Center

Login

Don't have an account? Register now (free) for customized features, flight alerts, and more!